createdAt,value
2023-04-30T00:00:03.528Z,0.56
2023-04-30T00:01:03.494Z,0.57
2023-04-30T00:02:03.530Z,0.58
2023-04-30T00:03:03.561Z,0.55
2023-04-30T00:04:03.522Z,0.57
2023-04-30T00:05:03.528Z,0.56
2023-04-30T00:06:03.549Z,0.55
2023-04-30T00:07:03.546Z,0.56
2023-04-30T00:08:03.588Z,0.57
2023-04-30T00:09:03.595Z,0.54
2023-04-30T00:10:03.553Z,0.55
2023-04-30T00:11:03.556Z,0.55
2023-04-30T00:12:03.640Z,0.57
2023-04-30T00:13:03.604Z,0.56
2023-04-30T00:14:03.602Z,0.55
2023-04-30T00:15:03.576Z,0.55
2023-04-30T00:16:03.633Z,0.56
2023-04-30T00:17:03.598Z,0.57
2023-04-30T00:18:03.652Z,0.56
2023-04-30T00:19:03.608Z,0.57
2023-04-30T00:20:03.625Z,0.56
2023-04-30T00:21:03.619Z,0.56
2023-04-30T00:22:03.630Z,0.57
2023-04-30T00:23:03.639Z,0.56
2023-04-30T00:24:03.601Z,0.55
2023-04-30T00:25:03.647Z,0.55
2023-04-30T00:26:03.674Z,0.57
2023-04-30T00:27:03.585Z,0.55
2023-04-30T00:28:03.664Z,0.55
2023-04-30T00:29:03.598Z,0.55
2023-04-30T00:30:03.657Z,0.56
2023-04-30T00:31:03.582Z,0.54
2023-04-30T00:32:03.719Z,0.55
2023-04-30T00:33:03.681Z,0.55
2023-04-30T00:34:03.605Z,0.56
2023-04-30T00:35:03.609Z,0.55
2023-04-30T00:36:03.651Z,0.55
2023-04-30T00:37:03.653Z,0.55
2023-04-30T00:38:03.676Z,0.55
2023-04-30T00:39:03.610Z,0.53
2023-04-30T00:40:03.649Z,0.56
2023-04-30T00:41:03.609Z,0.56
2023-04-30T00:42:03.666Z,0.57
2023-04-30T00:43:03.664Z,0.56
2023-04-30T00:44:03.680Z,0.56
2023-04-30T00:45:03.680Z,0.55
2023-04-30T00:46:03.756Z,0.55
2023-04-30T00:47:03.694Z,0.55
2023-04-30T00:48:03.738Z,0.54
2023-04-30T00:49:03.792Z,0.57
2023-04-30T00:50:03.726Z,0.56
2023-04-30T00:51:03.774Z,0.56
2023-04-30T00:52:03.731Z,0.54
2023-04-30T00:53:03.728Z,0.55
2023-04-30T00:54:04.258Z,0.54
2023-04-30T00:55:03.712Z,0.55
2023-04-30T00:56:03.710Z,0.55
2023-04-30T00:57:03.814Z,0.56
2023-04-30T00:58:03.743Z,0.55
2023-04-30T00:59:03.777Z,0.55
2023-04-30T01:00:03.783Z,0.55
2023-04-30T01:01:03.814Z,0.55
2023-04-30T01:02:03.860Z,0.55
2023-04-30T01:03:04.007Z,0.55
2023-04-30T01:04:03.878Z,0.58
2023-04-30T01:05:03.877Z,0.54
2023-04-30T01:06:03.931Z,0.55
2023-04-30T01:07:03.865Z,0.55
2023-04-30T01:08:03.912Z,0.54
2023-04-30T01:09:03.914Z,0.55
2023-04-30T01:10:03.932Z,0.55
2023-04-30T01:11:03.880Z,0.55
2023-04-30T01:12:03.863Z,0.54
2023-04-30T01:13:03.931Z,0.55
2023-04-30T01:14:03.934Z,0.56
2023-04-30T01:15:03.944Z,0.57
2023-04-30T01:16:03.943Z,0.54
2023-04-30T01:17:03.983Z,0.55
2023-04-30T01:18:03.995Z,0.55
2023-04-30T01:19:04.070Z,0.56
2023-04-30T01:20:04.030Z,0.57
2023-04-30T01:21:03.982Z,0.56
2023-04-30T01:22:04.024Z,0.56
2023-04-30T01:23:04.043Z,0.57
2023-04-30T01:24:04.033Z,0.56
2023-04-30T01:25:04.086Z,0.56
2023-04-30T01:26:04.081Z,0.55
2023-04-30T01:27:04.089Z,0.56
2023-04-30T01:28:04.143Z,0.55
2023-04-30T01:29:04.118Z,0.56
2023-04-30T01:30:04.167Z,0.56
2023-04-30T01:31:04.164Z,0.55
2023-04-30T01:32:04.232Z,0.55
2023-04-30T01:33:04.351Z,0.54
2023-04-30T01:34:04.169Z,0.56
2023-04-30T01:35:04.189Z,0.56
2023-04-30T01:36:04.243Z,0.57
2023-04-30T01:37:04.255Z,0.55
2023-04-30T01:38:04.259Z,0.57
2023-04-30T01:39:04.239Z,0.55
2023-04-30T01:40:04.235Z,0.56
2023-04-30T01:41:04.344Z,0.55
2023-04-30T01:42:04.230Z,0.56
2023-04-30T01:43:04.308Z,0.56
2023-04-30T01:44:04.330Z,0.58
2023-04-30T01:45:04.390Z,0.57
2023-04-30T01:46:04.385Z,0.56
2023-04-30T01:47:04.413Z,0.56
2023-04-30T01:48:04.362Z,0.57
2023-04-30T01:49:04.409Z,0.56
2023-04-30T01:50:04.428Z,0.56
2023-04-30T01:51:04.408Z,0.56
2023-04-30T01:52:04.449Z,0.56
2023-04-30T01:53:04.569Z,0.54
2023-04-30T01:54:04.453Z,0.55
2023-04-30T01:55:04.452Z,0.56
2023-04-30T01:56:04.492Z,0.56
2023-04-30T01:57:04.516Z,0.56
2023-04-30T01:58:04.522Z,0.55
2023-04-30T01:59:04.520Z,0.56
2023-04-30T02:00:04.526Z,0.56
2023-04-30T02:01:04.580Z,0.56
2023-04-30T02:02:04.534Z,0.55
2023-04-30T02:03:04.695Z,0.56
2023-04-30T02:04:05.166Z,0.57
2023-04-30T02:05:04.652Z,0.55
2023-04-30T02:06:04.690Z,0.56
2023-04-30T02:07:04.647Z,0.55
2023-04-30T02:08:04.658Z,0.55
2023-04-30T02:09:04.672Z,0.56
2023-04-30T02:10:04.770Z,0.55
2023-04-30T02:11:04.669Z,0.57
2023-04-30T02:12:04.774Z,0.56
2023-04-30T02:13:04.792Z,0.56
2023-04-30T02:14:04.798Z,0.56
2023-04-30T02:15:04.794Z,0.56
2023-04-30T02:16:04.849Z,0.55
2023-04-30T02:17:04.845Z,0.56
2023-04-30T02:18:04.917Z,0.55
2023-04-30T02:19:04.881Z,0.55
2023-04-30T02:20:05.709Z,0.54
2023-04-30T02:21:04.971Z,0.55
2023-04-30T02:22:04.908Z,0.57
2023-04-30T02:23:05.674Z,0.56
2023-04-30T02:24:04.968Z,0.56
2023-04-30T02:25:05.010Z,0.55
2023-04-30T02:26:04.999Z,0.57
2023-04-30T02:27:05.044Z,0.57
2023-04-30T02:28:05.065Z,0.55
2023-04-30T02:29:05.060Z,0.56
2023-04-30T02:30:05.070Z,0.56
2023-04-30T02:31:05.082Z,0.56
2023-04-30T02:32:05.148Z,0.56
2023-04-30T02:33:05.180Z,0.56
2023-04-30T02:34:05.211Z,0.57
2023-04-30T02:35:05.200Z,0.56
2023-04-30T02:36:05.153Z,0.57
2023-04-30T02:37:05.205Z,0.57
2023-04-30T02:38:05.220Z,0.57
2023-04-30T02:39:05.266Z,0.56
2023-04-30T02:40:05.271Z,0.56
2023-04-30T02:41:05.285Z,0.57
2023-04-30T02:42:05.294Z,0.57
2023-04-30T02:43:05.298Z,0.57
2023-04-30T02:44:05.320Z,0.56
2023-04-30T02:45:05.355Z,0.56
2023-04-30T02:46:05.387Z,0.57
2023-04-30T02:47:05.366Z,0.57
2023-04-30T02:48:05.423Z,0.58
2023-04-30T02:49:05.436Z,0.56
2023-04-30T02:50:05.444Z,0.57
2023-04-30T02:51:05.468Z,0.57
2023-04-30T02:52:05.459Z,0.56
2023-04-30T02:53:05.468Z,0.57
2023-04-30T02:54:05.527Z,0.56
2023-04-30T02:55:05.538Z,0.56
2023-04-30T02:56:05.550Z,0.56
2023-04-30T02:57:05.525Z,0.57
2023-04-30T02:58:05.610Z,0.57
2023-04-30T02:59:05.712Z,0.57
2023-04-30T03:00:05.629Z,0.56
2023-04-30T03:01:05.669Z,0.57
2023-04-30T03:02:05.696Z,0.57
2023-04-30T03:03:05.769Z,0.57
2023-04-30T03:04:05.716Z,0.55
2023-04-30T03:05:05.717Z,0.57
2023-04-30T03:06:05.785Z,0.56
2023-04-30T03:07:05.764Z,0.57
2023-04-30T03:08:05.764Z,0.56
2023-04-30T03:09:05.835Z,0.56
2023-04-30T03:10:05.801Z,0.56
2023-04-30T03:11:05.827Z,0.57
2023-04-30T03:12:05.905Z,0.57
2023-04-30T03:13:05.926Z,0.57
2023-04-30T03:14:05.882Z,0.56
2023-04-30T03:15:05.918Z,0.56
2023-04-30T03:16:05.967Z,0.57
2023-04-30T03:17:06.028Z,0.58
2023-04-30T03:18:06.051Z,0.57
2023-04-30T03:19:06.056Z,0.57
2023-04-30T03:20:06.069Z,0.56
2023-04-30T03:21:06.070Z,0.58
2023-04-30T03:22:06.107Z,0.56
2023-04-30T03:23:06.135Z,0.57
2023-04-30T03:24:06.211Z,0.57
2023-04-30T03:25:06.226Z,0.58
2023-04-30T03:26:06.276Z,0.57
2023-04-30T03:27:06.211Z,0.58
2023-04-30T03:28:06.221Z,0.58
2023-04-30T03:29:06.319Z,0.57
2023-04-30T03:30:06.329Z,0.56
2023-04-30T03:31:06.381Z,0.56
2023-04-30T03:32:06.344Z,0.56
2023-04-30T03:33:06.406Z,0.58
2023-04-30T03:34:06.404Z,0.57
2023-04-30T03:35:06.430Z,0.58
2023-04-30T03:36:06.488Z,0.57
2023-04-30T03:37:06.492Z,0.57
2023-04-30T03:38:06.488Z,0.57
2023-04-30T03:39:06.546Z,0.58
2023-04-30T03:40:06.571Z,0.58
2023-04-30T03:41:06.576Z,0.58
2023-04-30T03:42:06.562Z,0.57
2023-04-30T03:43:06.665Z,0.57
2023-04-30T03:44:06.629Z,0.57
2023-04-30T03:45:06.671Z,0.59
2023-04-30T03:46:06.695Z,0.57
2023-04-30T03:47:06.758Z,0.57
2023-04-30T03:48:06.798Z,0.58
2023-04-30T03:49:06.829Z,0.57
2023-04-30T03:50:06.785Z,0.57
2023-04-30T03:51:06.824Z,0.57
2023-04-30T03:52:06.900Z,0.58
2023-04-30T03:53:06.902Z,0.58
2023-04-30T03:54:06.919Z,0.58
2023-04-30T03:55:06.954Z,0.58
2023-04-30T03:56:06.996Z,0.58
2023-04-30T03:57:06.955Z,0.57
2023-04-30T03:58:07.034Z,0.58
2023-04-30T03:59:07.086Z,0.58
2023-04-30T04:00:07.122Z,0.57
2023-04-30T04:01:07.116Z,0.57
2023-04-30T04:02:07.204Z,0.58
2023-04-30T04:03:07.326Z,0.58
2023-04-30T04:04:07.360Z,0.58
2023-04-30T04:05:07.257Z,0.57
2023-04-30T04:06:07.310Z,0.58
2023-04-30T04:07:07.302Z,0.58
2023-04-30T04:08:07.333Z,0.59
2023-04-30T04:09:07.356Z,0.58
2023-04-30T04:10:07.371Z,0.57
2023-04-30T04:11:07.436Z,0.58
2023-04-30T04:12:07.497Z,0.58
2023-04-30T04:13:07.693Z,0.57
2023-04-30T04:14:07.512Z,0.59
2023-04-30T04:15:07.583Z,0.57
2023-04-30T04:16:07.679Z,0.58
2023-04-30T04:17:07.638Z,0.57
2023-04-30T04:18:07.771Z,0.58
2023-04-30T04:19:07.665Z,0.57
2023-04-30T04:20:07.739Z,0.58
2023-04-30T04:21:07.782Z,0.58
2023-04-30T04:22:07.833Z,0.57
2023-04-30T04:23:07.861Z,0.58
2023-04-30T04:24:07.895Z,0.59
2023-04-30T04:25:07.957Z,0.58
2023-04-30T04:26:07.999Z,0.58
2023-04-30T04:27:08.074Z,0.57
2023-04-30T04:28:08.072Z,0.58
2023-04-30T04:29:08.067Z,0.57
2023-04-30T04:30:08.120Z,0.58
2023-04-30T04:31:08.164Z,0.58
2023-04-30T04:32:08.172Z,0.58
2023-04-30T04:33:08.236Z,0.59
2023-04-30T04:34:08.202Z,0.59
2023-04-30T04:35:08.384Z,0.58
2023-04-30T04:36:08.326Z,0.58
2023-04-30T04:37:08.382Z,0.59
2023-04-30T04:38:08.369Z,0.58
2023-04-30T04:39:08.447Z,0.58
2023-04-30T04:40:09.275Z,0.59
2023-04-30T04:41:08.457Z,0.58
2023-04-30T04:42:08.512Z,0.59
2023-04-30T04:43:08.509Z,0.59
2023-04-30T04:44:08.502Z,0.59
2023-04-30T04:45:08.584Z,0.58
2023-04-30T04:46:08.611Z,0.59
2023-04-30T04:47:08.700Z,0.58
2023-04-30T04:48:08.794Z,0.57
2023-04-30T04:49:08.723Z,0.58
2023-04-30T04:50:08.773Z,0.58
2023-04-30T04:51:08.779Z,0.58
2023-04-30T04:52:08.862Z,0.59
2023-04-30T04:53:08.879Z,0.58
2023-04-30T04:54:08.900Z,0.59
2023-04-30T04:55:08.964Z,0.60
2023-04-30T04:56:08.990Z,0.57
2023-04-30T04:57:09.018Z,0.59
2023-04-30T04:58:09.020Z,0.58
2023-04-30T04:59:09.095Z,0.59
2023-04-30T05:00:09.098Z,0.59
2023-04-30T05:01:09.120Z,0.58
2023-04-30T05:02:09.198Z,0.58
2023-04-30T05:03:09.406Z,0.57
2023-04-30T05:04:09.273Z,0.57
2023-04-30T05:05:09.268Z,0.59
2023-04-30T05:06:09.299Z,0.57
2023-04-30T05:07:09.358Z,0.58
2023-04-30T05:08:09.408Z,0.59
2023-04-30T05:09:09.491Z,0.59
2023-04-30T05:10:09.494Z,0.59
2023-04-30T05:11:09.477Z,0.59
2023-04-30T05:12:09.538Z,0.58
2023-04-30T05:13:09.538Z,0.60
2023-04-30T05:14:09.605Z,0.58
2023-04-30T05:15:09.609Z,0.57
2023-04-30T05:16:09.652Z,0.58
2023-04-30T05:17:09.652Z,0.58
2023-04-30T05:18:09.813Z,0.57
2023-04-30T05:19:09.904Z,0.58
2023-04-30T05:20:09.808Z,0.58
2023-04-30T05:21:09.806Z,0.57
2023-04-30T05:22:09.788Z,0.59
2023-04-30T05:23:10.798Z,0.57
2023-04-30T05:24:09.881Z,0.58
2023-04-30T05:25:09.923Z,0.57
2023-04-30T05:26:09.921Z,0.57
2023-04-30T05:27:10.069Z,0.57
2023-04-30T05:28:10.010Z,0.58
2023-04-30T05:29:10.060Z,0.57
2023-04-30T05:30:10.075Z,0.57
2023-04-30T05:31:10.045Z,0.57
2023-04-30T05:32:10.268Z,0.58
2023-04-30T05:33:10.283Z,0.58
2023-04-30T05:34:10.189Z,0.58
2023-04-30T05:35:10.256Z,0.58
2023-04-30T05:36:10.198Z,0.57
2023-04-30T05:37:10.281Z,0.57
2023-04-30T05:38:10.284Z,0.59
2023-04-30T05:39:10.319Z,0.58
2023-04-30T05:40:10.335Z,0.56
2023-04-30T05:41:10.352Z,0.56
2023-04-30T05:42:10.398Z,0.57
2023-04-30T05:43:10.377Z,0.56
2023-04-30T05:44:10.463Z,0.59
2023-04-30T05:45:10.470Z,0.57
2023-04-30T05:46:10.564Z,0.57
2023-04-30T05:47:10.562Z,0.58
2023-04-30T05:48:10.596Z,0.56
2023-04-30T05:49:10.585Z,0.57
2023-04-30T05:50:10.666Z,0.57
2023-04-30T05:51:10.805Z,0.57
2023-04-30T05:52:10.677Z,0.57
2023-04-30T05:53:10.695Z,0.56
2023-04-30T05:54:10.722Z,0.57
2023-04-30T05:55:10.743Z,0.56
2023-04-30T05:56:10.806Z,0.57
2023-04-30T05:57:10.838Z,0.56
2023-04-30T05:58:10.864Z,0.56
2023-04-30T05:59:10.934Z,0.56
2023-04-30T06:00:10.947Z,0.56
2023-04-30T06:01:10.987Z,0.55
2023-04-30T06:02:11.077Z,0.56
2023-04-30T06:03:11.128Z,0.57
2023-04-30T06:04:11.076Z,0.57
2023-04-30T06:05:11.166Z,0.58
2023-04-30T06:06:11.186Z,0.57
2023-04-30T06:07:11.139Z,0.56
2023-04-30T06:08:11.153Z,0.57
2023-04-30T06:09:11.212Z,0.57
2023-04-30T06:10:11.217Z,0.56
2023-04-30T06:11:11.279Z,0.57
2023-04-30T06:12:11.280Z,0.56
2023-04-30T06:13:11.286Z,0.58
2023-04-30T06:14:11.350Z,0.55
2023-04-30T06:15:11.350Z,0.57
2023-04-30T06:16:11.434Z,0.55
2023-04-30T06:17:11.401Z,0.57
2023-04-30T06:18:11.402Z,0.57
2023-04-30T06:19:11.451Z,0.56
2023-04-30T06:20:11.434Z,0.55
2023-04-30T06:21:11.518Z,0.56
2023-04-30T06:22:11.507Z,0.57
2023-04-30T06:23:11.516Z,0.56
2023-04-30T06:24:11.538Z,0.56
2023-04-30T06:25:11.552Z,0.58
2023-04-30T06:26:11.582Z,0.58
2023-04-30T06:27:11.596Z,0.57
2023-04-30T06:28:11.643Z,0.58
2023-04-30T06:29:11.604Z,0.57
2023-04-30T06:30:11.657Z,0.57
2023-04-30T06:31:11.678Z,0.58
2023-04-30T06:32:11.718Z,0.59
2023-04-30T06:33:11.723Z,0.59
2023-04-30T06:34:11.732Z,0.58
2023-04-30T06:35:11.747Z,0.58
2023-04-30T06:36:11.799Z,0.59
2023-04-30T06:37:11.748Z,0.58
2023-04-30T06:38:11.821Z,0.58
2023-04-30T06:39:11.767Z,0.58
2023-04-30T06:40:11.837Z,0.58
2023-04-30T06:41:11.840Z,0.58
2023-04-30T06:42:11.849Z,0.59
2023-04-30T06:43:11.846Z,0.58
2023-04-30T06:44:11.860Z,0.58
2023-04-30T06:45:11.833Z,0.58
2023-04-30T06:46:11.983Z,0.58
2023-04-30T06:47:11.828Z,0.58
2023-04-30T06:48:11.837Z,0.58
2023-04-30T06:49:11.902Z,0.58
2023-04-30T06:50:11.896Z,0.59
2023-04-30T06:51:11.905Z,0.58
2023-04-30T06:52:11.851Z,0.58
2023-04-30T06:53:11.922Z,0.59
2023-04-30T06:54:11.869Z,0.57
2023-04-30T06:55:11.942Z,0.59
2023-04-30T06:56:11.876Z,0.58
2023-04-30T06:57:11.916Z,0.58
2023-04-30T06:58:11.893Z,0.56
2023-04-30T06:59:11.911Z,0.56
2023-04-30T07:00:11.911Z,0.58
2023-04-30T07:01:11.930Z,0.58
2023-04-30T07:02:11.995Z,0.55
2023-04-30T07:03:12.082Z,0.58
2023-04-30T07:04:11.996Z,0.58
2023-04-30T07:05:12.009Z,0.56
2023-04-30T07:06:12.058Z,0.56
2023-04-30T07:07:12.080Z,0.55
2023-04-30T07:08:12.071Z,0.58
2023-04-30T07:09:18.779Z,0.58
2023-04-30T07:10:12.065Z,0.58
2023-04-30T07:11:12.064Z,0.58
2023-04-30T07:12:12.115Z,0.58
2023-04-30T07:13:12.054Z,0.58
2023-04-30T07:14:12.069Z,0.55
2023-04-30T07:15:13.272Z,0.56
2023-04-30T07:16:12.103Z,0.60
2023-04-30T07:17:12.025Z,0.56
2023-04-30T07:18:12.109Z,0.57
2023-04-30T07:19:12.032Z,0.58
2023-04-30T07:20:12.035Z,0.58
2023-04-30T07:21:12.019Z,0.56
2023-04-30T07:22:12.021Z,0.56
2023-04-30T07:23:12.818Z,0.55
2023-04-30T07:24:11.964Z,0.55
2023-04-30T07:25:11.981Z,0.59
2023-04-30T07:26:11.973Z,0.58
2023-04-30T07:27:11.937Z,0.57
2023-04-30T07:28:11.966Z,0.58
2023-04-30T07:29:11.967Z,0.57
2023-04-30T07:30:11.963Z,0.58
2023-04-30T07:31:12.042Z,0.55
2023-04-30T07:32:11.932Z,0.59
2023-04-30T07:33:11.956Z,0.60
2023-04-30T07:34:11.987Z,0.57
2023-04-30T07:35:12.029Z,0.58
2023-04-30T07:36:12.116Z,0.60
2023-04-30T07:37:12.163Z,0.56
2023-04-30T07:38:12.234Z,0.55
2023-04-30T07:39:12.270Z,0.56
2023-04-30T07:40:15.248Z,0.58
2023-04-30T07:41:13.389Z,0.59
2023-04-30T07:42:12.370Z,0.56
2023-04-30T07:43:12.361Z,0.59
2023-04-30T07:44:12.368Z,0.58
2023-04-30T07:45:12.326Z,0.58
2023-04-30T07:46:12.456Z,0.59
2023-04-30T07:47:12.421Z,0.59
2023-04-30T07:48:12.333Z,0.59
2023-04-30T07:49:12.408Z,0.57
2023-04-30T07:50:12.446Z,0.55
2023-04-30T07:51:12.546Z,0.56
2023-04-30T07:52:12.512Z,0.57
2023-04-30T07:53:12.583Z,0.58
2023-04-30T07:54:12.657Z,0.58
2023-04-30T07:55:12.728Z,0.57
2023-04-30T07:56:12.785Z,0.56
2023-04-30T07:57:12.828Z,0.59
2023-04-30T07:58:12.885Z,0.57
2023-04-30T07:59:12.915Z,0.60
2023-04-30T08:00:12.993Z,0.57
2023-04-30T08:01:13.055Z,0.57
2023-04-30T08:02:13.074Z,0.57
2023-04-30T08:03:13.178Z,0.58
2023-04-30T08:04:13.259Z,0.58
2023-04-30T08:05:13.229Z,0.60
2023-04-30T08:06:13.293Z,0.58
2023-04-30T08:07:13.347Z,0.58
2023-04-30T08:08:13.369Z,0.61
2023-04-30T08:09:13.390Z,0.60
2023-04-30T08:10:13.477Z,0.59
2023-04-30T08:11:13.536Z,0.57
2023-04-30T08:12:13.563Z,0.57
2023-04-30T08:13:13.595Z,0.57
2023-04-30T08:14:13.638Z,0.58
2023-04-30T08:15:13.759Z,0.60
2023-04-30T08:16:13.793Z,0.60
2023-04-30T08:17:13.840Z,0.58
2023-04-30T08:18:13.922Z,0.58
2023-04-30T08:19:13.886Z,0.58
2023-04-30T08:20:13.950Z,0.59
2023-04-30T08:21:14.016Z,0.59
2023-04-30T08:22:14.062Z,0.58
2023-04-30T08:23:14.069Z,0.56
2023-04-30T08:24:14.110Z,0.57
2023-04-30T08:25:14.180Z,0.57
2023-04-30T08:26:14.235Z,0.59
2023-04-30T08:27:14.318Z,0.59
2023-04-30T08:28:14.368Z,0.59
2023-04-30T08:29:14.356Z,0.59
2023-04-30T08:30:14.436Z,0.59
2023-04-30T08:31:14.468Z,0.60
2023-04-30T08:32:14.638Z,0.57
2023-04-30T08:33:14.547Z,0.58
2023-04-30T08:34:14.611Z,0.59
2023-04-30T08:35:14.665Z,0.60
2023-04-30T08:36:14.672Z,0.57
2023-04-30T08:37:14.730Z,0.60
2023-04-30T08:38:14.788Z,0.58
2023-04-30T08:39:14.809Z,0.57
2023-04-30T08:40:14.850Z,0.57
2023-04-30T08:41:14.896Z,0.58
2023-04-30T08:42:14.920Z,0.58
2023-04-30T08:43:14.969Z,0.58
2023-04-30T08:44:14.988Z,0.59
2023-04-30T08:45:15.038Z,0.57
2023-04-30T08:46:15.195Z,0.57
2023-04-30T08:47:15.133Z,0.57
2023-04-30T08:48:15.306Z,0.57
2023-04-30T08:49:15.186Z,0.58
2023-04-30T08:50:15.236Z,0.57
2023-04-30T08:51:15.325Z,0.58
2023-04-30T08:52:15.327Z,0.59
2023-04-30T08:53:15.400Z,0.58
2023-04-30T08:54:15.405Z,0.58
2023-04-30T08:55:15.438Z,0.57
2023-04-30T08:56:15.539Z,0.58
2023-04-30T08:57:15.533Z,0.56
2023-04-30T08:58:15.526Z,0.57
2023-04-30T08:59:15.590Z,0.57
2023-04-30T09:00:15.586Z,0.57
2023-04-30T09:01:15.695Z,0.57
2023-04-30T09:02:15.668Z,0.57
2023-04-30T09:03:15.760Z,0.57
2023-04-30T09:04:15.814Z,0.57
2023-04-30T09:05:15.742Z,0.56
2023-04-30T09:06:15.862Z,0.58
2023-04-30T09:07:15.851Z,0.58
2023-04-30T09:08:15.907Z,0.58
2023-04-30T09:09:15.911Z,0.57
2023-04-30T09:10:15.917Z,0.57
2023-04-30T09:11:15.976Z,0.58
2023-04-30T09:12:18.667Z,0.58
2023-04-30T09:13:15.969Z,0.58
2023-04-30T09:14:16.000Z,0.59
2023-04-30T09:15:15.987Z,0.58
2023-04-30T09:16:16.046Z,0.58
2023-04-30T09:17:15.972Z,0.57
2023-04-30T09:18:16.022Z,0.57
2023-04-30T09:19:15.930Z,0.57
2023-04-30T09:20:15.989Z,0.58
2023-04-30T09:21:15.919Z,0.59
2023-04-30T09:22:15.954Z,0.58
2023-04-30T09:23:15.948Z,0.57
2023-04-30T09:24:16.691Z,0.56
2023-04-30T09:25:15.923Z,0.59
2023-04-30T09:26:15.933Z,0.58
2023-04-30T09:27:15.930Z,0.57
2023-04-30T09:28:15.869Z,0.57
2023-04-30T09:29:15.884Z,0.58
2023-04-30T09:30:15.906Z,0.58
2023-04-30T09:31:15.901Z,0.56
2023-04-30T09:32:15.863Z,0.57
2023-04-30T09:33:15.884Z,0.58
2023-04-30T09:34:15.893Z,0.55
2023-04-30T09:35:15.886Z,0.57
2023-04-30T09:36:15.823Z,0.57
2023-04-30T09:37:15.818Z,0.58
2023-04-30T09:38:15.847Z,0.58
2023-04-30T09:39:16.300Z,0.57
2023-04-30T09:40:15.816Z,0.58
2023-04-30T09:41:15.825Z,0.57
2023-04-30T09:42:15.866Z,0.57
2023-04-30T09:43:15.872Z,0.57
2023-04-30T09:44:15.842Z,0.58
2023-04-30T09:45:15.867Z,0.57
2023-04-30T09:46:15.879Z,0.58
2023-04-30T09:47:15.868Z,0.56
2023-04-30T09:48:17.688Z,0.57
2023-04-30T09:49:15.900Z,0.57
2023-04-30T09:50:15.933Z,0.57
2023-04-30T09:51:15.901Z,0.57
2023-04-30T09:52:15.906Z,0.58
2023-04-30T09:53:15.911Z,0.58
2023-04-30T09:54:15.926Z,0.57
2023-04-30T09:55:15.928Z,0.58
2023-04-30T09:56:15.971Z,0.57
2023-04-30T09:57:15.985Z,0.58
2023-04-30T09:58:16.001Z,0.57
2023-04-30T09:59:15.951Z,0.57
2023-04-30T10:00:16.001Z,0.58
2023-04-30T10:01:16.026Z,0.58
2023-04-30T10:02:15.969Z,0.59
2023-04-30T10:03:15.981Z,0.57
2023-04-30T10:04:16.048Z,0.57
2023-04-30T10:05:15.999Z,0.56
2023-04-30T10:06:16.036Z,0.58
2023-04-30T10:07:17.103Z,0.58
2023-04-30T10:08:15.949Z,0.58
2023-04-30T10:09:15.964Z,0.58
2023-04-30T10:10:16.001Z,0.58
2023-04-30T10:11:15.953Z,0.58
2023-04-30T10:12:15.943Z,0.59
2023-04-30T10:13:15.951Z,0.58
2023-04-30T10:14:15.953Z,0.57
2023-04-30T10:15:15.957Z,0.59
2023-04-30T10:16:16.066Z,0.58
2023-04-30T10:17:16.015Z,0.58
2023-04-30T10:18:15.982Z,0.58
2023-04-30T10:19:15.988Z,0.58
2023-04-30T10:20:15.999Z,0.57
2023-04-30T10:21:16.002Z,0.60
2023-04-30T10:22:16.011Z,0.58
2023-04-30T10:23:16.013Z,0.58
2023-04-30T10:24:15.974Z,0.58
2023-04-30T10:25:16.375Z,0.58
2023-04-30T10:26:16.038Z,0.58
2023-04-30T10:27:16.006Z,0.58
2023-04-30T10:28:15.994Z,0.58
2023-04-30T10:29:15.993Z,0.59
2023-04-30T10:30:16.005Z,0.58
2023-04-30T10:31:16.015Z,0.59
2023-04-30T10:32:16.109Z,0.59
2023-04-30T10:33:16.998Z,0.59
2023-04-30T10:34:15.987Z,0.58
2023-04-30T10:35:16.014Z,0.59
2023-04-30T10:36:16.006Z,0.60
2023-04-30T10:37:16.020Z,0.59
2023-04-30T10:38:16.011Z,0.58
2023-04-30T10:39:16.016Z,0.60
2023-04-30T10:40:16.063Z,0.59
2023-04-30T10:41:16.091Z,0.59
2023-04-30T10:42:16.149Z,0.60
2023-04-30T10:43:16.154Z,0.60
2023-04-30T10:44:16.151Z,0.59
2023-04-30T10:45:16.180Z,0.59
2023-04-30T10:46:16.271Z,0.58
2023-04-30T10:47:16.230Z,0.59
2023-04-30T10:48:16.263Z,0.58
2023-04-30T10:49:16.229Z,0.59
2023-04-30T10:50:16.245Z,0.59
2023-04-30T10:51:16.221Z,0.58
2023-04-30T10:52:16.273Z,0.59
2023-04-30T10:53:16.226Z,0.60
2023-04-30T10:54:16.237Z,0.60
2023-04-30T10:55:16.280Z,0.59
2023-04-30T10:56:16.297Z,0.60
2023-04-30T10:57:16.296Z,0.59
2023-04-30T10:58:16.286Z,0.58
2023-04-30T10:59:16.316Z,0.60
2023-04-30T11:00:16.325Z,0.59
2023-04-30T11:01:16.295Z,0.61
2023-04-30T11:02:16.285Z,0.59
2023-04-30T11:03:16.283Z,0.59
2023-04-30T11:04:16.400Z,0.59
2023-04-30T11:05:16.324Z,0.61
2023-04-30T11:06:16.369Z,0.60
2023-04-30T11:07:16.316Z,0.59
2023-04-30T11:08:16.329Z,0.59
2023-04-30T11:09:16.336Z,0.59
2023-04-30T11:10:16.403Z,0.59
2023-04-30T11:11:16.440Z,0.59
2023-04-30T11:12:16.456Z,0.60
2023-04-30T11:13:16.507Z,0.60
2023-04-30T11:14:16.486Z,0.59
2023-04-30T11:15:16.472Z,0.60
2023-04-30T11:16:16.568Z,0.60
2023-04-30T11:17:16.488Z,0.60
2023-04-30T11:18:16.498Z,0.60
2023-04-30T11:19:16.528Z,0.61
2023-04-30T11:20:16.516Z,0.60
2023-04-30T11:21:16.516Z,0.60
2023-04-30T11:22:16.577Z,0.60
2023-04-30T11:23:22.260Z,0.60
2023-04-30T11:24:17.497Z,0.60
2023-04-30T11:25:16.545Z,0.60
2023-04-30T11:26:16.560Z,0.60
2023-04-30T11:27:16.499Z,0.60
2023-04-30T11:28:16.576Z,0.59
2023-04-30T11:29:16.554Z,0.60
2023-04-30T11:30:16.484Z,0.60
2023-04-30T11:31:16.545Z,0.60
2023-04-30T11:32:16.449Z,0.61
2023-04-30T11:33:16.545Z,0.60
2023-04-30T11:34:16.506Z,0.60
2023-04-30T11:35:16.575Z,0.60
2023-04-30T11:36:16.621Z,0.60
2023-04-30T11:37:16.626Z,0.59
2023-04-30T11:38:16.671Z,0.60
2023-04-30T11:39:16.677Z,0.60
2023-04-30T11:40:16.697Z,0.60
2023-04-30T11:41:16.795Z,0.60
2023-04-30T11:42:16.861Z,0.61
2023-04-30T11:43:16.872Z,0.60
2023-04-30T11:44:17.052Z,0.60
2023-04-30T11:45:16.994Z,0.60
2023-04-30T11:46:17.067Z,0.61
2023-04-30T11:47:17.110Z,0.60
2023-04-30T11:48:17.116Z,0.60
2023-04-30T11:49:17.141Z,0.60
2023-04-30T11:50:17.239Z,0.59
2023-04-30T11:51:17.277Z,0.61
2023-04-30T11:52:17.357Z,0.61
2023-04-30T11:53:17.397Z,0.60
2023-04-30T11:54:17.410Z,0.60
2023-04-30T11:55:17.507Z,0.61
2023-04-30T11:56:17.532Z,0.60
2023-04-30T11:57:17.583Z,0.61
2023-04-30T11:58:17.632Z,0.60
2023-04-30T11:59:17.732Z,0.60
2023-04-30T12:00:17.731Z,0.60
2023-04-30T12:01:17.754Z,0.60
2023-04-30T12:02:17.862Z,0.60
2023-04-30T12:03:17.958Z,0.61
2023-04-30T12:04:17.920Z,0.60
2023-04-30T12:05:17.882Z,0.60
2023-04-30T12:06:17.918Z,0.60
2023-04-30T12:07:17.961Z,0.60
2023-04-30T12:08:17.998Z,0.61
2023-04-30T12:09:18.045Z,0.59
2023-04-30T12:10:18.088Z,0.59
2023-04-30T12:11:18.151Z,0.57
2023-04-30T12:12:18.142Z,0.58
2023-04-30T12:13:18.180Z,0.56
2023-04-30T12:14:18.215Z,0.55
2023-04-30T12:15:18.255Z,0.56
2023-04-30T12:16:18.317Z,0.54
2023-04-30T12:17:18.276Z,0.54
2023-04-30T12:18:18.449Z,0.54
2023-04-30T12:19:18.357Z,0.52
2023-04-30T12:20:18.393Z,0.53
2023-04-30T12:21:18.418Z,0.52
2023-04-30T12:22:18.467Z,0.51
2023-04-30T12:23:18.477Z,0.51
2023-04-30T12:24:18.534Z,0.51
2023-04-30T12:25:18.540Z,0.51
2023-04-30T12:26:18.571Z,0.50
2023-04-30T12:27:18.561Z,0.51
2023-04-30T12:28:18.572Z,0.51
2023-04-30T12:29:18.670Z,0.50
2023-04-30T12:30:18.646Z,0.51
2023-04-30T12:31:18.700Z,0.50
2023-04-30T12:32:18.888Z,0.51
2023-04-30T12:33:18.732Z,0.50
2023-04-30T12:34:18.708Z,0.50
2023-04-30T12:35:18.777Z,0.50
2023-04-30T12:36:18.789Z,0.50
2023-04-30T12:37:18.793Z,0.51
2023-04-30T12:38:18.856Z,0.51
2023-04-30T12:39:18.838Z,0.51
2023-04-30T12:40:18.852Z,0.52
2023-04-30T12:41:18.884Z,0.53
2023-04-30T12:42:18.911Z,0.50
2023-04-30T12:43:18.918Z,0.54
2023-04-30T12:44:18.973Z,0.53
2023-04-30T12:45:19.004Z,0.51
2023-04-30T12:46:19.097Z,0.52
2023-04-30T12:47:19.084Z,0.51
2023-04-30T12:48:19.158Z,0.50
2023-04-30T12:49:19.207Z,0.52
2023-04-30T12:50:19.232Z,0.51
2023-04-30T12:51:19.368Z,0.51
2023-04-30T12:52:19.294Z,0.51
2023-04-30T12:53:19.346Z,0.51
2023-04-30T12:54:19.403Z,0.51
2023-04-30T12:55:19.406Z,0.50
2023-04-30T12:56:19.409Z,0.51
2023-04-30T12:57:19.412Z,0.52
2023-04-30T12:58:19.465Z,0.52
2023-04-30T12:59:19.479Z,0.51
2023-04-30T13:00:19.516Z,0.50
2023-04-30T13:01:19.605Z,0.51
2023-04-30T13:02:19.709Z,0.51
2023-04-30T13:03:19.779Z,0.51
2023-04-30T13:04:19.682Z,0.52
2023-04-30T13:05:19.800Z,0.52
2023-04-30T13:06:19.764Z,0.51
2023-04-30T13:07:19.703Z,0.51
2023-04-30T13:08:19.727Z,0.52
2023-04-30T13:09:19.704Z,0.52
2023-04-30T13:10:19.715Z,0.51
2023-04-30T13:11:19.723Z,0.52
2023-04-30T13:12:19.735Z,0.51
2023-04-30T13:13:19.738Z,0.51
2023-04-30T13:14:19.741Z,0.51
2023-04-30T13:15:19.758Z,0.52
2023-04-30T13:16:19.937Z,0.51
2023-04-30T13:17:19.822Z,0.51
2023-04-30T13:18:19.808Z,0.51